createdAt,value
2022-12-14T00:02:53.897Z,97599.50
2022-12-14T00:05:55.819Z,97591.03
2022-12-14T00:09:00.192Z,97591.06
2022-12-14T00:12:02.025Z,97593.47
2022-12-14T00:15:04.669Z,97585.44
2022-12-14T00:18:06.529Z,97593.34
2022-12-14T00:21:13.740Z,97588.91
2022-12-14T00:24:15.599Z,97595.38
2022-12-14T00:27:17.571Z,97586.94
2022-12-14T00:30:20.579Z,97590.38
2022-12-14T00:33:22.400Z,97590.63
2022-12-14T00:36:24.562Z,97590.63
2022-12-14T00:39:26.349Z,97578.69
2022-12-14T00:42:28.055Z,97587.00
2022-12-14T00:45:29.880Z,97580.09
2022-12-14T00:48:32.206Z,97578.13
2022-12-14T00:51:34.311Z,97580.88
2022-12-14T00:54:36.147Z,97578.53
2022-12-14T00:57:38.029Z,97580.78
2022-12-14T01:00:40.505Z,97580.88
2022-12-14T01:03:42.847Z,97579.16
2022-12-14T01:06:46.063Z,97577.97
2022-12-14T01:09:48.335Z,97575.59
2022-12-14T01:12:50.288Z,97573.78
2022-12-14T01:15:55.440Z,97582.09
2022-12-14T01:18:57.309Z,97580.97
2022-12-14T01:21:59.989Z,97581.31
2022-12-14T01:25:02.041Z,97588.34
2022-12-14T01:28:03.880Z,97581.47
2022-12-14T01:31:11.642Z,97589.41
2022-12-14T01:34:13.642Z,97571.22
2022-12-14T01:37:16.128Z,97575.50
2022-12-14T01:40:18.083Z,97575.50
2022-12-14T01:43:19.907Z,97567.94
2022-12-14T01:46:35.364Z,97569.69
2022-12-14T01:49:44.420Z,97585.81
2022-12-14T01:52:50.352Z,97585.72
2022-12-14T01:55:54.367Z,97582.34
2022-12-14T01:58:57.801Z,97582.50
2022-12-14T02:02:06.009Z,97576.19
2022-12-14T02:05:09.829Z,97564.56
2022-12-14T02:08:12.263Z,97553.69
2022-12-14T02:11:14.633Z,97564.88
2022-12-14T02:14:16.675Z,97547.28
2022-12-14T02:17:19.679Z,97556.66
2022-12-14T02:20:22.823Z,97553.13
2022-12-14T02:23:49.015Z,97557.94
2022-12-14T02:27:15.832Z,97555.34
2022-12-14T02:30:23.045Z,97548.50
2022-12-14T02:33:51.055Z,97531.66
2022-12-14T02:37:11.831Z,97522.28
2022-12-14T02:40:19.806Z,97515.66
2022-12-14T02:43:30.273Z,97537.13
2022-12-14T02:46:53.723Z,97519.00
2022-12-14T02:50:22.505Z,97507.53
2022-12-14T02:53:43.374Z,97506.16
2022-12-14T02:56:48.988Z,97505.88
2022-12-14T02:59:54.156Z,97511.66
2022-12-14T03:02:56.253Z,97493.66
2022-12-14T03:06:02.270Z,97497.63
2022-12-14T03:09:11.803Z,97482.94
2022-12-14T03:12:15.967Z,97490.31
2022-12-14T03:15:18.718Z,97489.59
2022-12-14T03:18:24.183Z,97487.94
2022-12-14T03:21:30.030Z,97478.94
2022-12-14T03:24:43.381Z,97483.06
2022-12-14T03:27:51.005Z,97478.13
2022-12-14T03:31:03.194Z,97499.75
2022-12-14T03:34:13.226Z,97500.19
2022-12-14T03:37:32.931Z,97492.59
2022-12-14T03:40:39.224Z,97506.53
2022-12-14T03:43:49.763Z,97491.09
2022-12-14T03:47:05.111Z,97485.19
2022-12-14T03:50:12.578Z,97501.28
2022-12-14T03:53:22.945Z,97492.78
2022-12-14T03:57:08.735Z,97474.34
2022-12-14T04:00:17.345Z,97472.91
2022-12-14T04:03:44.262Z,97471.50
2022-12-14T04:06:48.950Z,97476.72
2022-12-14T04:10:32.335Z,97469.44
2022-12-14T04:13:59.012Z,97473.56
2022-12-14T04:17:21.294Z,97465.81
2022-12-14T04:20:28.318Z,97457.06
2022-12-14T04:23:53.113Z,97435.66
2022-12-14T04:27:15.489Z,97434.63
2022-12-14T04:30:17.870Z,97432.38
2022-12-14T04:33:38.312Z,97425.69
2022-12-14T04:36:44.994Z,97424.81
2022-12-14T04:39:59.579Z,97426.81
2022-12-14T04:43:08.547Z,97421.47
2022-12-14T04:46:18.855Z,97425.47
2022-12-14T04:49:26.292Z,97407.22
2022-12-14T04:52:40.073Z,97399.22
2022-12-14T04:56:24.400Z,97404.72
2022-12-14T04:59:26.784Z,97393.69
2022-12-14T05:02:43.789Z,97394.16
2022-12-14T05:05:57.190Z,97397.84
2022-12-14T05:09:07.584Z,97401.97
2022-12-14T05:12:18.307Z,97399.94
2022-12-14T05:15:23.763Z,97400.53
2022-12-14T05:18:25.822Z,97385.22
2022-12-14T05:21:46.345Z,97385.47
2022-12-14T05:24:48.391Z,97361.69
2022-12-14T05:27:50.686Z,97356.47
2022-12-14T05:30:52.495Z,97347.53
2022-12-14T05:33:55.261Z,97364.56
2022-12-14T05:36:58.426Z,97355.16
2022-12-14T05:40:00.290Z,97354.72
2022-12-14T05:43:06.713Z,97351.69
2022-12-14T05:46:11.690Z,97340.31
2022-12-14T05:49:13.692Z,97327.25
2022-12-14T05:52:15.975Z,97334.34
2022-12-14T05:55:18.438Z,97327.50
2022-12-14T05:58:20.410Z,97333.91
2022-12-14T06:01:22.350Z,97332.34
2022-12-14T06:04:25.207Z,97327.91
2022-12-14T06:07:28.179Z,97337.09
2022-12-14T06:10:30.507Z,97336.50
2022-12-14T06:13:32.431Z,97314.00
2022-12-14T06:16:35.191Z,97320.88
2022-12-14T06:19:37.083Z,97330.63
2022-12-14T06:22:44.194Z,97321.13
2022-12-14T06:25:56.161Z,97321.91
2022-12-14T06:28:58.335Z,97306.66
2022-12-14T06:32:01.508Z,97309.53
2022-12-14T06:35:04.065Z,97316.00
2022-12-14T06:38:05.977Z,97305.97
2022-12-14T06:41:10.274Z,97305.88
2022-12-14T06:44:13.705Z,97316.75
2022-12-14T06:47:15.847Z,97314.44
2022-12-14T06:50:17.737Z,97303.81
2022-12-14T06:53:19.689Z,97304.25
2022-12-14T06:56:23.126Z,97314.19
2022-12-14T06:59:25.157Z,97317.94
2022-12-14T07:02:27.203Z,97306.91
2022-12-14T07:05:29.230Z,97310.69
2022-12-14T07:08:33.005Z,97314.59
2022-12-14T07:11:34.951Z,97307.56
2022-12-14T07:14:36.963Z,97305.97
2022-12-14T07:17:39.230Z,97298.72
2022-12-14T07:20:41.292Z,97293.88
2022-12-14T07:23:44.566Z,97282.31
2022-12-14T07:26:46.872Z,97274.03
2022-12-14T07:29:48.995Z,97270.06
2022-12-14T07:32:51.275Z,97275.75
2022-12-14T07:35:53.327Z,97265.41
2022-12-14T07:38:56.164Z,97269.03
2022-12-14T07:41:58.363Z,97259.50
2022-12-14T07:45:01.379Z,97252.13
2022-12-14T07:48:03.456Z,97258.41
2022-12-14T07:51:07.906Z,97266.72
2022-12-14T07:54:11.070Z,97263.88
2022-12-14T07:57:13.235Z,97276.66
2022-12-14T08:00:15.259Z,97280.72
2022-12-14T08:03:17.465Z,97284.09
2022-12-14T08:06:20.697Z,97283.72
2022-12-14T08:09:22.701Z,97284.59
2022-12-14T08:12:24.826Z,97285.84
2022-12-14T08:15:26.716Z,97293.19
2022-12-14T08:18:29.064Z,97295.09
2022-12-14T08:21:31.309Z,97295.00
2022-12-14T08:24:33.424Z,97292.28
2022-12-14T08:27:35.328Z,97287.09
2022-12-14T08:30:40.946Z,97284.28
2022-12-14T08:33:44.131Z,97272.53
2022-12-14T08:36:47.319Z,97265.97
2022-12-14T08:39:49.664Z,97275.19
2022-12-14T08:42:51.575Z,97283.28
2022-12-14T08:45:55.724Z,97286.75
2022-12-14T08:48:59.072Z,97282.78
2022-12-14T08:52:01.594Z,97280.72
2022-12-14T08:55:03.927Z,97277.00
2022-12-14T08:58:05.853Z,97274.31
2022-12-14T09:01:13.523Z,97264.22
2022-12-14T09:04:15.754Z,97266.72
2022-12-14T09:07:17.671Z,97273.31
2022-12-14T09:10:22.118Z,97276.78
2022-12-14T09:13:24.300Z,97273.97
2022-12-14T09:16:26.604Z,97262.88
2022-12-14T09:19:29.147Z,97265.03
2022-12-14T09:22:31.317Z,97263.41
2022-12-14T09:25:33.715Z,97260.25
2022-12-14T09:28:41.710Z,97257.44
2022-12-14T09:31:44.284Z,97245.75
2022-12-14T09:34:46.254Z,97238.25
2022-12-14T09:37:48.228Z,97247.50
2022-12-14T09:41:05.993Z,97257.53
2022-12-14T09:44:37.397Z,97262.94
2022-12-14T09:47:49.993Z,97261.22
2022-12-14T09:50:52.850Z,97264.88
2022-12-14T09:54:03.000Z,97264.16
2022-12-14T09:57:12.002Z,97245.97
2022-12-14T10:00:19.344Z,97235.78
2022-12-14T10:03:27.671Z,97245.88
2022-12-14T10:06:35.197Z,97250.56
2022-12-14T10:09:40.339Z,97236.69
2022-12-14T10:13:14.549Z,97238.06
2022-12-14T10:16:28.180Z,97232.00
2022-12-14T10:19:44.595Z,97231.00
2022-12-14T10:22:49.916Z,97225.13
2022-12-14T10:25:54.647Z,97223.16
2022-12-14T10:29:02.525Z,97210.50
2022-12-14T10:32:08.272Z,97199.09
2022-12-14T10:35:14.970Z,97192.19
2022-12-14T10:38:59.785Z,97187.31
2022-12-14T10:42:20.467Z,97178.50
2022-12-14T10:45:52.088Z,97178.44
2022-12-14T10:49:14.383Z,97165.13
2022-12-14T10:52:19.586Z,97173.53
2022-12-14T10:55:26.120Z,97155.72
2022-12-14T10:58:28.617Z,97156.66
2022-12-14T11:01:30.871Z,97148.25
2022-12-14T11:04:56.223Z,97136.38
2022-12-14T11:07:58.342Z,97130.41
2022-12-14T11:11:19.410Z,97128.69
2022-12-14T11:14:22.920Z,97120.22
2022-12-14T11:17:41.460Z,97117.00
2022-12-14T11:20:59.646Z,97108.03
2022-12-14T11:24:02.699Z,97109.78
2022-12-14T11:27:06.493Z,97091.88
2022-12-14T11:30:16.763Z,97087.88
2022-12-14T11:33:18.821Z,97078.69
2022-12-14T11:36:32.736Z,97072.94
2022-12-14T11:39:40.330Z,97066.94
2022-12-14T11:42:48.391Z,97065.81
2022-12-14T11:45:51.621Z,97051.94
2022-12-14T11:48:53.725Z,97052.44
2022-12-14T11:52:00.024Z,97050.06
2022-12-14T11:55:02.007Z,97042.25
2022-12-14T11:58:04.230Z,97047.84
2022-12-14T12:01:12.392Z,97050.50
2022-12-14T12:04:15.874Z,97052.88
2022-12-14T12:07:30.849Z,97039.16
2022-12-14T12:10:50.284Z,97032.06
2022-12-14T12:14:11.244Z,97022.88
2022-12-14T12:17:37.369Z,97019.38
2022-12-14T12:20:43.413Z,97006.28
2022-12-14T12:24:18.093Z,97017.72
2022-12-14T12:27:20.887Z,97009.06
2022-12-14T12:30:28.717Z,97013.81
2022-12-14T12:33:54.848Z,97009.28
2022-12-14T12:37:25.402Z,96998.97
2022-12-14T12:40:33.161Z,96995.91
2022-12-14T12:43:42.533Z,96989.88
2022-12-14T12:47:26.048Z,96982.06
2022-12-14T12:50:32.787Z,96977.41
2022-12-14T12:53:50.027Z,96982.06
2022-12-14T12:56:54.037Z,96984.03
2022-12-14T12:59:57.729Z,96975.16
2022-12-14T13:03:17.960Z,96959.22
2022-12-14T13:06:36.169Z,96954.88
2022-12-14T13:09:45.184Z,96954.16
2022-12-14T13:13:01.702Z,96957.34
2022-12-14T13:16:13.457Z,96956.81
2022-12-14T13:19:50.634Z,96945.19
2022-12-14T13:22:54.200Z,96934.28
2022-12-14T13:26:56.644Z,96930.75
2022-12-14T13:30:06.449Z,96918.41
2022-12-14T13:33:13.606Z,96910.97
2022-12-14T13:36:21.636Z,96907.72
2022-12-14T13:39:26.796Z,96897.41
2022-12-14T13:42:59.793Z,96894.59
2022-12-14T13:46:07.857Z,96897.63
2022-12-14T13:49:19.938Z,96902.75
2022-12-14T13:52:32.354Z,96888.94
2022-12-14T13:56:00.724Z,96883.47
2022-12-14T13:59:06.330Z,96872.34
2022-12-14T14:02:30.495Z,96863.41
2022-12-14T14:05:35.765Z,96861.66
2022-12-14T14:08:51.795Z,96843.44
2022-12-14T14:12:05.272Z,96849.59
2022-12-14T14:15:27.822Z,96849.00
2022-12-14T14:19:08.491Z,96845.50
2022-12-14T14:22:26.579Z,96836.72
2022-12-14T14:25:34.648Z,96830.06
2022-12-14T14:28:38.495Z,96819.84
2022-12-14T14:31:48.481Z,96813.88
2022-12-14T14:34:51.435Z,96804.53
2022-12-14T14:38:25.819Z,96806.38
2022-12-14T14:41:51.157Z,96800.50
2022-12-14T14:44:59.500Z,96803.19
2022-12-14T14:48:08.794Z,96776.84
2022-12-14T14:51:11.093Z,96769.72
2022-12-14T14:58:05.168Z,96770.75
2022-12-14T15:01:10.341Z,96766.34
2022-12-14T15:04:23.953Z,96769.13
2022-12-14T15:07:29.835Z,96749.75
2022-12-14T15:10:37.660Z,96731.25
2022-12-14T15:14:04.671Z,96740.50
2022-12-14T15:17:13.790Z,96736.50
2022-12-14T15:20:34.698Z,96748.94
2022-12-14T15:23:40.050Z,96756.94
2022-12-14T15:26:42.425Z,96755.44
2022-12-14T15:29:46.916Z,96769.13
2022-12-14T15:32:59.065Z,96777.53
2022-12-14T15:36:20.296Z,96780.03
2022-12-14T15:39:38.701Z,96778.78
2022-12-14T15:42:47.835Z,96773.13
2022-12-14T15:45:55.994Z,96768.19
2022-12-14T15:49:00.577Z,96762.59
2022-12-14T15:52:03.351Z,96764.66
2022-12-14T15:55:06.610Z,96769.53
2022-12-14T15:58:17.815Z,96749.00
2022-12-14T16:01:28.297Z,96727.09
2022-12-14T16:04:32.424Z,96724.16
2022-12-14T16:07:55.343Z,96730.00
2022-12-14T16:11:00.974Z,96735.13
2022-12-14T16:14:17.813Z,96753.66
2022-12-14T16:17:32.680Z,96771.91
2022-12-14T16:20:37.275Z,96798.66
2022-12-14T16:23:45.235Z,96819.75
2022-12-14T16:26:56.296Z,96828.41
2022-12-14T16:30:17.972Z,96809.25
2022-12-14T16:33:21.434Z,96815.03
2022-12-14T16:36:25.791Z,96817.06
2022-12-14T16:39:34.704Z,96817.69
2022-12-14T16:42:37.010Z,96800.22
2022-12-14T16:45:42.462Z,96787.69
2022-12-14T16:49:09.840Z,96793.88
2022-12-14T16:52:33.782Z,96811.75
2022-12-14T16:56:06.580Z,96818.16
2022-12-14T16:59:32.255Z,96827.63
2022-12-14T17:02:38.668Z,96809.28
2022-12-14T17:05:41.978Z,96804.56
2022-12-14T17:08:44.720Z,96797.53
2022-12-14T17:11:47.332Z,96805.34
2022-12-14T17:14:50.174Z,96790.50
2022-12-14T17:17:54.329Z,96785.16
2022-12-14T17:20:57.013Z,96781.03
2022-12-14T17:23:59.693Z,96797.66
2022-12-14T17:27:02.076Z,96805.13
2022-12-14T17:30:06.292Z,96799.72
2022-12-14T17:33:09.481Z,96806.41
2022-12-14T17:36:11.954Z,96801.78
2022-12-14T17:39:14.034Z,96792.09
2022-12-14T17:42:18.333Z,96788.91
2022-12-14T17:45:28.737Z,96790.34
2022-12-14T17:48:31.309Z,96787.91
2022-12-14T17:51:41.334Z,96795.31
2022-12-14T17:54:44.043Z,96793.66
2022-12-14T17:57:46.828Z,96778.56
2022-12-14T18:01:01.648Z,96777.41
2022-12-14T18:04:03.983Z,96766.09
2022-12-14T18:07:06.974Z,96775.13
2022-12-14T18:10:10.006Z,96769.50
2022-12-14T18:13:13.507Z,96769.56
2022-12-14T18:16:18.154Z,96765.84
2022-12-14T18:19:20.759Z,96762.06
2022-12-14T18:22:23.340Z,96761.25
2022-12-14T18:25:48.051Z,96771.22
2022-12-14T18:28:53.107Z,96767.59
2022-12-14T18:31:55.593Z,96773.56
2022-12-14T18:35:00.531Z,96765.16
2022-12-14T18:38:02.514Z,96757.53
2022-12-14T18:41:05.713Z,96755.75
2022-12-14T18:44:08.814Z,96751.28
2022-12-14T18:47:40.057Z,96744.25
2022-12-14T18:50:36.178Z,96753.19
2022-12-14T18:53:42.995Z,96750.13
2022-12-14T18:56:45.656Z,96748.78
2022-12-14T18:59:51.720Z,96737.47
2022-12-14T19:02:57.680Z,96722.56
2022-12-14T19:06:42.057Z,96721.84
2022-12-14T19:09:32.853Z,96721.44
2022-12-14T19:12:58.509Z,96728.34
2022-12-14T19:16:01.331Z,96727.78
2022-12-14T19:19:03.966Z,96730.59
2022-12-14T19:22:19.983Z,96725.16
2022-12-14T19:25:23.356Z,96727.59
2022-12-14T19:28:32.327Z,96732.75
2022-12-14T19:31:34.947Z,96716.09
2022-12-14T19:34:39.690Z,96720.63
2022-12-14T19:37:42.166Z,96718.88
2022-12-14T19:40:46.940Z,96716.81
2022-12-14T19:43:49.057Z,96710.47
2022-12-14T19:46:51.398Z,96719.19
2022-12-14T19:49:53.702Z,96716.91
2022-12-14T19:52:55.779Z,96711.56
2022-12-14T19:55:57.968Z,96725.38
2022-12-14T19:59:03.837Z,96728.63
2022-12-14T20:02:07.045Z,96729.06
2022-12-14T20:05:09.557Z,96722.66
2022-12-14T20:08:12.480Z,96729.03
2022-12-14T20:11:15.326Z,96736.47
2022-12-14T20:14:18.738Z,96746.81
2022-12-14T20:17:21.579Z,96743.03
2022-12-14T20:20:24.382Z,96736.34
2022-12-14T20:23:26.803Z,96740.84
2022-12-14T20:26:30.202Z,96750.00
2022-12-14T20:29:32.644Z,96752.09
2022-12-14T20:32:34.852Z,96756.41
2022-12-14T20:35:37.470Z,96762.88
2022-12-14T20:38:40.564Z,96756.84
2022-12-14T20:41:44.122Z,96750.88
2022-12-14T20:44:50.638Z,96735.84
2022-12-14T20:47:56.465Z,96735.75
2022-12-14T20:51:03.976Z,96742.63
2022-12-14T20:54:20.375Z,96762.91
2022-12-14T20:57:28.952Z,96742.03
2022-12-14T21:00:32.583Z,96734.00
2022-12-14T21:03:42.496Z,96732.25
2022-12-14T21:06:45.533Z,96747.56
2022-12-14T21:09:55.578Z,96735.53
2022-12-14T21:13:07.870Z,96732.75
2022-12-14T21:16:10.448Z,96734.84
2022-12-14T21:19:14.109Z,96735.72
2022-12-14T21:22:21.147Z,96729.88
2022-12-14T21:25:24.452Z,96738.31
2022-12-14T21:28:31.991Z,96733.38
2022-12-14T21:31:38.477Z,96724.34
2022-12-14T21:34:41.945Z,96721.03
2022-12-14T21:37:47.134Z,96728.03
2022-12-14T21:41:14.554Z,96724.00
2022-12-14T21:44:17.613Z,96726.50
2022-12-14T21:47:28.393Z,96745.81
2022-12-14T21:50:30.901Z,96743.25
2022-12-14T21:54:01.716Z,96745.31
2022-12-14T21:57:23.683Z,96753.31
2022-12-14T22:00:35.005Z,96747.97
2022-12-14T22:03:39.732Z,96753.09
2022-12-14T22:06:44.594Z,96746.13
2022-12-14T22:09:49.513Z,96740.22
2022-12-14T22:12:58.542Z,96746.06
2022-12-14T22:16:08.250Z,96745.00
2022-12-14T22:19:18.731Z,96748.09
2022-12-14T22:22:24.665Z,96747.69
2022-12-14T22:25:27.272Z,96756.94
2022-12-14T22:28:30.186Z,96728.09
2022-12-14T22:31:38.306Z,96732.22
2022-12-14T22:34:43.693Z,96720.25
2022-12-14T22:37:46.059Z,96716.06
2022-12-14T22:41:08.066Z,96720.03
2022-12-14T22:44:16.166Z,96710.38
2022-12-14T22:47:26.330Z,96719.06
2022-12-14T22:50:38.052Z,96739.09
2022-12-14T22:53:43.565Z,96746.59
2022-12-14T22:57:06.813Z,96740.44
2022-12-14T23:00:20.844Z,96744.97
2022-12-14T23:03:26.412Z,96743.50
2022-12-14T23:06:37.522Z,96746.09
2022-12-14T23:09:58.517Z,96735.44
2022-12-14T23:13:24.238Z,96738.59
2022-12-14T23:16:50.187Z,96751.13
2022-12-14T23:20:17.772Z,96741.03
2022-12-14T23:23:42.715Z,96746.47
2022-12-14T23:27:09.105Z,96747.84
2022-12-14T23:30:33.894Z,96750.34
2022-12-14T23:33:55.383Z,96749.47
2022-12-14T23:37:20.178Z,96750.31
2022-12-14T23:40:44.837Z,96762.22
2022-12-14T23:44:06.381Z,96772.09
2022-12-14T23:47:30.191Z,96777.03
2022-12-14T23:50:56.443Z,96759.13
2022-12-14T23:54:21.256Z,96756.66
2022-12-14T23:57:45.790Z,96768.00
